Time;durP1;ratioP1;P1;durP2;ratioP2;P2;SDS_P1;SDS_P2;PMS_P1;PMS_P2;Temp;Humidity;BMP_temperature;BMP_pressure;BME280_temperature;BME280_humidity;BME280_pressure;Samples;Min_cycle;Max_cycle;Signal;HPM_P1;HPM_P2
2024/02/22 00:01:01;;;;;;;65.13;59.92;;;;;;;5.36;100.00;101765.09;6299767;22;20027;-71
2024/02/22 00:03:28;;;;;;;64.95;59.83;;;;;;;5.39;100.00;101754.28;6299936;22;20061;-71
2024/02/22 00:05:55;;;;;;;63.67;58.67;;;;;;;5.38;100.00;101754.41;6294228;22;20023;-71
2024/02/22 00:08:24;;;;;;;66.53;61.08;;;;;;;5.42;100.00;101753.16;6300396;22;20024;-71
2024/02/22 00:10:51;;;;;;;67.15;61.85;;;;;;;5.44;100.00;101751.19;6299258;22;20104;-71
2024/02/22 00:13:19;;;;;;;63.67;58.67;;;;;;;5.48;100.00;101744.66;6299331;22;20023;-71
2024/02/22 00:15:45;;;;;;;71.20;65.72;;;;;;;5.51;100.00;101742.56;6299379;22;20051;-71
2024/02/22 00:18:13;;;;;;;68.88;63.72;;;;;;;5.49;100.00;101738.41;6299042;22;20023;-70
2024/02/22 00:20:40;;;;;;;61.13;56.33;;;;;;;5.42;100.00;101732.06;6299818;22;20019;-71
2024/02/22 00:23:06;;;;;;;58.97;54.30;;;;;;;5.43;100.00;101734.56;6299082;22;20027;-70
2024/02/22 00:25:35;;;;;;;60.20;55.05;;;;;;;5.42;100.00;101730.28;6299550;22;20026;-71
2024/02/22 00:28:02;;;;;;;60.72;55.65;;;;;;;5.27;100.00;101735.19;6299657;22;20027;-71
2024/02/22 00:30:29;;;;;;;56.63;52.10;;;;;;;5.35;100.00;101729.19;6299727;22;20105;-71
2024/02/22 00:32:56;;;;;;;57.38;52.88;;;;;;;5.35;100.00;101731.81;6298947;22;20023;-71
2024/02/22 00:35:22;;;;;;;56.65;52.25;;;;;;;5.31;100.00;101735.72;6299433;22;20023;-71
2024/02/22 00:37:49;;;;;;;62.20;57.40;;;;;;;5.33;100.00;101720.63;6299298;22;20345;-71
2024/02/22 00:40:17;;;;;;;59.63;55.03;;;;;;;5.30;100.00;101718.28;6299400;22;20027;-71
2024/02/22 00:42:46;;;;;;;61.15;56.45;;;;;;;5.26;100.00;101712.47;6299238;22;20042;-71
2024/02/22 00:45:13;;;;;;;62.47;57.97;;;;;;;5.28;100.00;101707.88;6299470;22;20464;-71
2024/02/22 00:47:40;;;;;;;60.30;55.83;;;;;;;5.30;100.00;101717.44;6298844;22;20023;-71
2024/02/22 00:50:08;;;;;;;61.70;57.35;;;;;;;5.33;100.00;101706.63;6299501;22;20027;-71
2024/02/22 00:52:34;;;;;;;56.50;52.47;;;;;;;5.25;100.00;101712.59;6298646;22;20023;-71
2024/02/22 00:55:02;;;;;;;56.92;52.72;;;;;;;5.24;100.00;101711.78;6298712;22;20023;-71
2024/02/22 00:57:30;;;;;;;54.67;50.47;;;;;;;5.25;100.00;101708.16;6299460;22;20672;-71
2024/02/22 00:59:58;;;;;;;55.60;51.40;;;;;;;5.19;100.00;101703.47;6299029;22;20027;-71
2024/02/22 01:02:26;;;;;;;53.10;49.13;;;;;;;5.10;100.00;101700.91;6298687;22;20019;-71
2024/02/22 01:04:53;;;;;;;50.92;47.13;;;;;;;5.03;100.00;101700.66;6298148;22;20034;-71
2024/02/22 01:07:20;;;;;;;53.50;49.50;;;;;;;5.09;100.00;101694.81;6294436;22;20027;-71
2024/02/22 01:09:47;;;;;;;55.97;51.78;;;;;;;4.81;100.00;101692.16;6299075;22;20037;-71
2024/02/22 01:12:14;;;;;;;52.38;48.38;;;;;;;4.76;100.00;101691.75;6299162;22;20034;-72
2024/02/22 01:14:41;;;;;;;51.63;47.47;;;;;;;4.91;100.00;101691.28;6298448;22;20094;-71
2024/02/22 01:17:09;;;;;;;51.33;46.92;;;;;;;4.69;100.00;101688.03;6298488;22;20019;-71
2024/02/22 01:19:36;;;;;;;52.75;48.83;;;;;;;4.39;100.00;101693.50;6298889;22;20472;-71
2024/02/22 01:22:04;;;;;;;53.90;49.90;;;;;;;4.34;100.00;101689.50;6298365;22;20019;-71
2024/02/22 01:24:31;;;;;;;48.85;45.05;;;;;;;4.37;100.00;101685.75;6298077;22;20030;-71
2024/02/22 01:26:58;;;;;;;49.53;45.72;;;;;;;4.59;100.00;101688.06;6297954;22;20023;-71
2024/02/22 01:29:26;;;;;;;51.13;47.33;;;;;;;4.70;100.00;101689.69;6298368;22;20698;-71
2024/02/22 01:31:53;;;;;;;52.33;48.53;;;;;;;4.68;100.00;101688.19;6298636;22;20037;-71
2024/02/22 01:34:21;;;;;;;51.75;47.85;;;;;;;4.60;100.00;101691.53;6297840;22;20024;-72
2024/02/22 01:36:48;;;;;;;55.40;51.20;;;;;;;4.67;100.00;101683.91;6298668;22;20023;-71
2024/02/22 01:39:15;;;;;;;57.20;52.70;;;;;;;4.67;100.00;101682.09;6298366;22;20078;-71
2024/02/22 01:41:42;;;;;;;49.55;45.75;;;;;;;4.43;100.00;101685.19;6298484;22;20478;-72
2024/02/22 01:44:09;;;;;;;52.03;48.13;;;;;;;4.41;100.00;101675.78;6298176;22;20023;-71
2024/02/22 01:46:37;;;;;;;54.67;50.67;;;;;;;4.35;100.00;101680.63;6297937;22;20023;-71
2024/02/22 01:49:05;;;;;;;48.10;44.50;;;;;;;4.13;100.00;101676.53;6297669;22;20031;-71
2024/02/22 01:51:35;;;;;;;49.08;45.22;;;;;;;4.00;100.00;101677.78;6298004;22;20030;-71
2024/02/22 01:54:04;;;;;;;55.38;50.80;;;;;;;3.94;100.00;101673.91;6297664;22;20126;-71
2024/02/22 01:56:32;;;;;;;72.20;65.18;;;;;;;3.90;100.00;101673.38;6297830;22;20104;-71
2024/02/22 01:59:00;;;;;;;57.95;53.08;;;;;;;3.76;100.00;101670.31;6298209;22;20031;-70
2024/02/22 02:01:27;;;;;;;51.25;47.05;;;;;;;3.76;100.00;101657.19;6298151;22;20768;-70
2024/02/22 02:03:56;;;;;;;51.65;47.35;;;;;;;3.27;100.00;101667.66;6298104;22;20049;-69
2024/02/22 02:06:22;;;;;;;49.53;45.25;;;;;;;3.19;100.00;101667.47;6292745;22;20019;-69
2024/02/22 02:08:51;;;;;;;47.15;43.22;;;;;;;3.09;100.00;101664.84;6298354;22;20019;-71
2024/02/22 02:11:18;;;;;;;46.63;43.03;;;;;;;2.86;100.00;101672.06;6298080;22;20031;-69
2024/02/22 02:13:43;;;;;;;47.00;43.40;;;;;;;2.86;100.00;101668.63;6297954;22;20026;-70
2024/02/22 02:16:10;;;;;;;47.90;44.10;;;;;;;2.91;100.00;101667.25;6299022;22;20019;-69
2024/02/22 02:18:39;;;;;;;47.50;43.60;;;;;;;2.67;100.00;101664.94;6298183;22;20431;-69
2024/02/22 02:21:11;;;;;;;53.40;49.05;;;;;;;2.69;100.00;101656.94;6298388;22;20488;-69
2024/02/22 02:23:43;;;;;;;;;;;;;;;2.92;100.00;101665.47;6298122;22;20059;-68
2024/02/22 02:26:13;;;;;;;48.43;44.63;;;;;;;2.92;100.00;101652.34;6297967;22;20348;-69
2024/02/22 02:28:40;;;;;;;52.95;48.95;;;;;;;2.74;100.00;101660.00;6297961;22;20058;-69
2024/02/22 02:31:06;;;;;;;47.28;43.70;;;;;;;2.78;100.00;101658.75;6298034;22;20034;-69
2024/02/22 02:33:33;;;;;;;45.63;42.13;;;;;;;2.13;100.00;101662.56;6298302;22;20661;-69
2024/02/22 02:36:00;;;;;;;43.80;40.40;;;;;;;2.13;100.00;101660.78;6298349;22;20537;-69
2024/02/22 02:38:27;;;;;;;50.13;46.42;;;;;;;1.87;100.00;101657.69;6297455;22;20454;-69
2024/02/22 02:40:54;;;;;;;47.13;43.53;;;;;;;1.84;100.00;101655.31;6298330;22;20034;-69
2024/02/22 02:43:22;;;;;;;48.22;44.42;;;;;;;1.97;100.00;101665.63;6298135;22;20379;-69
2024/02/22 02:45:49;;;;;;;45.17;41.72;;;;;;;1.80;100.00;101661.75;6298120;22;20360;-69
2024/02/22 02:48:19;;;;;;;45.83;42.42;;;;;;;1.75;100.00;101659.50;6296540;22;20027;-69
2024/02/22 02:50:46;;;;;;;48.35;44.78;;;;;;;1.88;100.00;101664.59;6297391;22;20019;-69
2024/02/22 02:53:13;;;;;;;42.83;39.53;;;;;;;1.95;100.00;101667.53;6296860;22;20027;-69
2024/02/22 02:55:40;;;;;;;41.95;38.75;;;;;;;1.92;100.00;101665.16;6297642;22;20027;-69
2024/02/22 02:58:08;;;;;;;41.85;38.75;;;;;;;1.61;100.00;101667.69;6296971;22;20023;-69
2024/02/22 03:00:38;;;;;;;45.67;42.28;;;;;;;1.68;100.00;101668.00;6297568;22;20085;-68
2024/02/22 03:03:05;;;;;;;44.58;41.33;;;;;;;1.68;100.00;101673.25;6296453;22;20065;-69
2024/02/22 03:05:32;;;;;;;44.47;41.05;;;;;;;1.65;100.00;101676.13;6293897;22;20034;-69
2024/02/22 03:07:59;;;;;;;47.00;43.40;;;;;;;1.65;100.00;101676.94;6298311;22;20023;-69
2024/02/22 03:10:26;;;;;;;48.72;45.03;;;;;;;1.26;100.00;101676.56;6300184;22;20023;-69
2024/02/22 03:12:53;;;;;;;49.47;45.67;;;;;;;1.54;100.00;101669.97;6299559;22;20023;-69
2024/02/22 03:15:20;;;;;;;46.55;43.15;;;;;;;1.28;100.00;101666.81;6299780;22;20463;-69
2024/02/22 03:17:48;;;;;;;43.83;40.53;;;;;;;1.34;100.00;101662.88;6299069;22;20050;-68
2024/02/22 03:20:17;;;;;;;43.65;40.25;;;;;;;1.18;100.00;101668.50;6299901;22;20403;-69
2024/02/22 03:22:44;;;;;;;42.72;39.13;;;;;;;1.11;100.00;101668.13;6299735;22;20034;-69
2024/02/22 03:25:12;;;;;;;47.85;44.33;;;;;;;1.23;100.00;101668.94;6299065;22;20107;-69
2024/02/22 03:27:39;;;;;;;44.70;41.30;;;;;;;1.46;100.00;101664.50;6300277;22;20019;-69
2024/02/22 03:30:08;;;;;;;41.22;38.03;;;;;;;0.94;100.00;101670.41;6299950;22;20026;-69
2024/02/22 03:32:36;;;;;;;45.38;41.60;;;;;;;0.98;100.00;101664.81;6299590;22;20700;-69
2024/02/22 03:35:06;;;;;;;41.88;38.67;;;;;;;1.27;100.00;101661.69;6299965;22;20424;-68
2024/02/22 03:37:33;;;;;;;39.42;36.53;;;;;;;0.73;100.00;101663.28;6299946;22;20336;-69
2024/02/22 03:40:00;;;;;;;40.58;37.50;;;;;;;0.86;100.00;101663.16;6299839;22;20029;-69
2024/02/22 03:42:29;;;;;;;39.83;36.92;;;;;;;0.99;100.00;101665.66;6299800;22;20023;-69
2024/02/22 03:44:56;;;;;;;39.03;36.22;;;;;;;0.92;100.00;101670.53;6299472;22;20034;-69
2024/02/22 03:47:23;;;;;;;36.97;34.30;;;;;;;0.68;100.00;101666.25;6298915;22;20021;-69
2024/02/22 03:49:50;;;;;;;36.25;33.55;;;;;;;0.89;100.00;101669.00;6299696;22;20658;-70
2024/02/22 03:52:18;;;;;;;35.85;33.17;;;;;;;0.87;100.00;101672.66;6299548;22;20023;-69
2024/02/22 03:54:45;;;;;;;38.63;35.83;;;;;;;1.04;100.00;101666.97;6298980;22;20023;-69
2024/02/22 03:57:12;;;;;;;38.72;35.92;;;;;;;0.61;100.00;101672.09;6298812;22;20488;-69
2024/02/22 03:59:39;;;;;;;38.38;35.58;;;;;;;0.88;100.00;101674.34;6299304;22;20062;-69
2024/02/22 04:02:07;;;;;;;36.05;32.95;;;;;;;1.07;100.00;101671.13;6299594;22;20027;-69
2024/02/22 04:04:34;;;;;;;37.75;35.00;;;;;;;0.86;100.00;101671.00;6298801;22;20063;-69
2024/02/22 04:07:03;;;;;;;38.00;35.20;;;;;;;0.74;100.00;101670.19;6293950;22;20028;-69
2024/02/22 04:09:32;;;;;;;39.90;37.08;;;;;;;1.01;100.00;101661.13;6299373;22;20031;-69
2024/02/22 04:11:59;;;;;;;37.05;34.35;;;;;;;0.65;100.00;101666.50;6300080;22;20362;-68
2024/02/22 04:14:26;;;;;;;38.08;35.28;;;;;;;0.56;100.00;101661.97;6299518;22;20030;-70
2024/02/22 04:16:53;;;;;;;36.22;33.53;;;;;;;0.68;100.00;101658.41;6298909;22;20023;-69
2024/02/22 04:19:19;;;;;;;36.97;34.28;;;;;;;0.37;100.00;101657.31;6299605;22;20069;-69
2024/02/22 04:21:46;;;;;;;31.00;28.70;;;;;;;0.51;100.00;101652.81;6299588;22;20363;-69
2024/02/22 04:24:13;;;;;;;30.40;28.08;;;;;;;0.33;100.00;101650.63;6298538;22;20030;-69
2024/02/22 04:26:50;;;;;;;30.40;27.70;;;;;;;0.06;100.00;101645.75;6299012;22;20465;-69
2024/02/22 04:29:18;;;;;;;38.58;36.17;;;;;;;0.25;100.00;101646.97;6299189;22;20030;-69
2024/02/22 04:31:46;;;;;;;46.60;43.58;;;;;;;0.27;100.00;101658.13;6299506;22;20027;-69
2024/02/22 04:34:13;;;;;;;32.50;29.80;;;;;;;0.13;100.00;101649.53;6299583;22;20080;-69
2024/02/22 04:36:43;;;;;;;33.25;29.90;;;;;;;0.24;100.00;101651.34;6298969;22;20020;-69
2024/02/22 04:39:11;;;;;;;37.55;34.55;;;;;;;0.20;100.00;101655.97;6299130;22;20438;-69
2024/02/22 04:41:38;;;;;;;32.58;29.17;;;;;;;-0.31;100.00;101650.22;6299232;22;20094;-69
2024/02/22 04:44:07;;;;;;;29.88;27.27;;;;;;;-0.03;100.00;101644.66;6298894;22;20023;-68
2024/02/22 04:46:35;;;;;;;30.70;28.42;;;;;;;0.10;100.00;101646.34;6300099;22;20003;-69
2024/02/22 04:49:04;;;;;;;31.58;29.17;;;;;;;-0.21;100.00;101643.41;6299043;22;20059;-69
2024/02/22 04:51:31;;;;;;;33.70;31.30;;;;;;;0.06;100.00;101634.44;6299439;22;20368;-69
2024/02/22 04:53:58;;;;;;;33.20;30.60;;;;;;;0.18;100.00;101636.97;6299859;22;20519;-68
2024/02/22 04:56:25;;;;;;;32.20;29.80;;;;;;;0.17;100.00;101637.91;6298760;22;20027;-69
2024/02/22 04:58:53;;;;;;;32.30;29.90;;;;;;;0.17;100.00;101647.53;6299009;22;20027;-69
2024/02/22 05:01:21;;;;;;;31.42;29.10;;;;;;;0.21;100.00;101652.44;6299317;22;20031;-69
2024/02/22 05:03:48;;;;;;;30.15;27.95;;;;;;;0.05;100.00;101653.69;6299436;22;20027;-69
2024/02/22 05:06:15;;;;;;;29.80;27.60;;;;;;;0.24;100.00;101653.94;6293850;22;20046;-68
2024/02/22 05:08:42;;;;;;;34.30;32.10;;;;;;;0.33;100.00;101666.31;6298908;22;20453;-69
2024/02/22 05:11:09;;;;;;;38.30;35.90;;;;;;;0.45;100.00;101654.09;6299226;22;20503;-69
2024/02/22 05:13:36;;;;;;;39.60;37.20;;;;;;;0.44;100.00;101658.50;6298280;22;20030;-69
2024/02/22 05:16:03;;;;;;;37.70;35.50;;;;;;;0.14;100.00;101651.19;6298579;22;20405;-68
2024/02/22 05:18:31;;;;;;;37.20;34.90;;;;;;;0.02;100.00;101656.50;6298980;22;20476;-68
2024/02/22 05:20:58;;;;;;;28.17;26.08;;;;;;;-0.17;100.00;101662.28;6298961;22;20073;-69
2024/02/22 05:23:25;;;;;;;30.02;27.83;;;;;;;-0.23;100.00;101666.16;6298886;22;20020;-69
2024/02/22 05:25:52;;;;;;;28.92;26.80;;;;;;;-0.20;100.00;101670.34;6298186;22;20413;-69
2024/02/22 05:28:19;;;;;;;28.70;26.60;;;;;;;-0.12;100.00;101673.19;6298780;22;20428;-69
2024/02/22 05:30:46;;;;;;;31.05;28.75;;;;;;;-0.02;100.00;101675.03;6298461;22;20034;-69
2024/02/22 05:33:13;;;;;;;41.53;38.08;;;;;;;3.67;100.00;101678.06;6298603;22;20659;-69
2024/02/22 05:35:41;;;;;;;39.55;36.55;;;;;;;6.51;100.00;101681.81;6298833;22;20023;-71
2024/02/22 05:38:08;;;;;;;31.77;29.77;;;;;;;1.18;100.00;101683.34;6298009;22;20023;-72
2024/02/22 05:40:39;;;;;;;33.03;30.83;;;;;;;0.28;100.00;101685.94;6297770;22;20054;-69
2024/02/22 05:43:06;;;;;;;32.13;29.85;;;;;;;0.40;100.00;101685.00;6298442;22;20100;-69
2024/02/22 05:45:35;;;;;;;31.20;29.00;;;;;;;0.64;100.00;101690.97;6297703;22;20019;-69
2024/02/22 05:48:02;;;;;;;37.83;34.80;;;;;;;0.79;100.00;101685.53;6297933;22;20102;-69
2024/02/22 05:50:28;;;;;;;39.90;36.92;;;;;;;0.96;100.00;101687.66;6298343;22;20027;-69
2024/02/22 05:52:59;;;;;;;39.03;36.22;;;;;;;1.11;100.00;101689.06;6298153;22;20023;-69
2024/02/22 05:55:27;;;;;;;37.35;34.75;;;;;;;1.44;100.00;101683.91;6297719;22;20024;-69
2024/02/22 05:57:54;;;;;;;42.17;38.95;;;;;;;1.67;100.00;101690.75;6297742;22;20544;-69
2024/02/22 06:00:23;;;;;;;42.70;39.60;;;;;;;1.81;100.00;101692.22;6298395;22;20099;-69
2024/02/22 06:02:49;;;;;;;44.05;40.83;;;;;;;1.92;100.00;101686.13;6299553;22;20449;-69
2024/02/22 06:05:16;;;;;;;43.53;40.42;;;;;;;2.04;100.00;101696.44;6298558;22;20540;-69
2024/02/22 06:07:46;;;;;;;44.95;41.85;;;;;;;2.36;100.00;101695.56;6293047;22;20020;-69
2024/02/22 06:10:14;;;;;;;50.05;46.65;;;;;;;2.50;100.00;101697.84;6299556;22;20023;-70
2024/02/22 06:12:43;;;;;;;49.92;46.47;;;;;;;2.49;100.00;101700.59;6297966;22;20030;-68
2024/02/22 06:15:10;;;;;;;45.67;42.42;;;;;;;2.79;100.00;101697.19;6298612;22;20023;-69
2024/02/22 06:17:37;;;;;;;45.67;42.47;;;;;;;2.64;100.00;101699.31;6298100;22;20022;-69
2024/02/22 06:20:06;;;;;;;43.75;40.75;;;;;;;2.80;100.00;101705.88;6298767;22;20368;-69
2024/02/22 06:22:33;;;;;;;44.97;41.78;;;;;;;3.02;100.00;101704.84;6298630;22;20418;-71
2024/02/22 06:25:00;;;;;;;50.67;47.05;;;;;;;3.29;100.00;101691.94;6298237;22;20034;-71
2024/02/22 06:27:29;;;;;;;55.20;50.92;;;;;;;3.33;100.00;101705.63;6297885;22;20122;-71
2024/02/22 06:29:56;;;;;;;50.03;46.72;;;;;;;3.43;100.00;101703.88;6298834;22;20019;-71
2024/02/22 06:32:24;;;;;;;50.15;46.85;;;;;;;3.54;100.00;101701.16;6298229;22;20023;-71
2024/02/22 06:34:51;;;;;;;56.70;52.72;;;;;;;3.68;100.00;101692.84;6298216;22;20027;-71
2024/02/22 06:37:19;;;;;;;60.30;55.17;;;;;;;3.76;100.00;101686.09;6297885;22;20023;-71
2024/02/22 06:39:46;;;;;;;59.63;54.63;;;;;;;4.07;100.00;101694.66;6297893;22;20526;-71
2024/02/22 06:42:14;;;;;;;52.30;48.22;;;;;;;4.17;100.00;101692.84;6296384;22;20027;-71
2024/02/22 06:44:46;;;;;;;47.17;43.78;;;;;;;4.64;100.00;101698.16;6297551;22;20026;-71
2024/02/22 06:47:13;;;;;;;49.72;45.40;;;;;;;4.88;100.00;101692.41;6298217;22;20098;-71
2024/02/22 06:49:41;;;;;;;48.53;45.35;;;;;;;5.09;100.00;101697.44;6298295;22;20488;-71
2024/02/22 06:52:07;;;;;;;50.67;47.47;;;;;;;4.97;100.00;101690.72;6297967;22;20100;-71
2024/02/22 06:54:35;;;;;;;46.33;43.33;;;;;;;5.09;100.00;101696.63;6298624;22;20392;-71
2024/02/22 06:57:03;;;;;;;46.35;43.35;;;;;;;5.58;100.00;101683.97;6297626;22;20027;-71
2024/02/22 06:59:30;;;;;;;48.85;45.72;;;;;;;5.46;100.00;101686.00;6297601;22;20023;-71
2024/02/22 07:02:00;;;;;;;46.80;43.70;;;;;;;5.43;100.00;101679.22;6297862;22;20029;-71
2024/02/22 07:04:27;;;;;;;49.78;46.67;;;;;;;5.65;100.00;101680.59;6299066;22;20468;-71
2024/02/22 07:06:54;;;;;;;51.33;48.00;;;;;;;5.93;100.00;101672.63;6292676;22;20029;-71
2024/02/22 07:09:21;;;;;;;49.45;46.35;;;;;;;6.42;100.00;101670.38;6298041;22;20034;-71
2024/02/22 07:11:48;;;;;;;47.30;44.40;;;;;;;6.36;100.00;101673.63;6297397;22;20027;-71
2024/02/22 07:14:15;;;;;;;53.88;50.67;;;;;;;6.80;100.00;101660.34;6297364;22;20098;-71
2024/02/22 07:16:42;;;;;;;42.30;39.60;;;;;;;7.21;100.00;101660.50;6298001;22;20046;-71
2024/02/22 07:19:11;;;;;;;43.38;40.72;;;;;;;7.41;100.00;101651.28;6297742;22;20023;-71
2024/02/22 07:21:38;;;;;;;40.78;38.17;;;;;;;7.57;100.00;101651.34;6298064;22;20023;-71
2024/02/22 07:24:05;;;;;;;41.25;38.55;;;;;;;8.17;100.00;101649.34;6298551;22;20996;-72
2024/02/22 07:26:32;;;;;;;37.97;35.47;;;;;;;8.17;100.00;101642.25;6297604;22;20469;-71
2024/02/22 07:28:59;;;;;;;39.95;37.35;;;;;;;9.08;100.00;101643.66;6297856;22;20031;-71
2024/02/22 07:31:35;;;;;;;47.22;44.42;;;;;;;8.72;100.00;101638.00;6298203;22;20027;-71
2024/02/22 07:34:02;;;;;;;45.97;43.15;;;;;;;9.52;100.00;101636.91;6298719;22;20732;-72
2024/02/22 07:36:32;;;;;;;41.70;39.00;;;;;;;9.28;100.00;101629.94;6297974;22;20046;-72
2024/02/22 07:39:01;;;;;;;39.08;36.28;;;;;;;10.18;100.00;101624.75;6297345;22;20023;-72
2024/02/22 07:41:28;;;;;;;39.55;36.58;;;;;;;9.79;100.00;101625.75;6297417;22;20128;-71
2024/02/22 07:43:56;;;;;;;47.72;44.08;;;;;;;10.52;100.00;101620.78;6298135;22;20019;-72
2024/02/22 07:46:26;;;;;;;37.38;34.97;;;;;;;10.14;100.00;101623.47;6297001;22;20030;-72
2024/02/22 07:48:52;;;;;;;45.83;43.15;;;;;;;10.13;100.00;101619.16;6297529;22;20051;-71
2024/02/22 07:51:20;;;;;;;47.40;44.60;;;;;;;10.73;100.00;101612.88;6297800;22;20062;-72
2024/02/22 07:53:48;;;;;;;43.88;41.28;;;;;;;11.04;100.00;101614.47;6299763;22;20027;-72
2024/02/22 07:56:18;;;;;;;44.08;41.47;;;;;;;11.04;100.00;101614.47;6299255;22;20364;-71
2024/02/22 07:58:47;;;;;;;39.53;37.20;;;;;;;11.07;100.00;101618.59;6298889;22;20062;-71
2024/02/22 08:01:14;;;;;;;35.55;33.35;;;;;;;10.64;100.00;101608.69;6298935;22;20399;-72
2024/02/22 08:03:41;;;;;;;38.25;35.70;;;;;;;11.56;100.00;101609.91;6299085;22;20089;-71
2024/02/22 08:06:09;;;;;;;35.10;33.10;;;;;;;12.41;100.00;101610.81;6299219;22;20023;-72
2024/02/22 08:08:36;;;;;;;40.75;38.47;;;;;;;11.85;100.00;101608.97;6293393;22;20088;-72
2024/02/22 08:11:05;;;;;;;40.00;37.72;;;;;;;10.55;100.00;101604.47;6299189;22;20030;-71
2024/02/22 08:13:32;;;;;;;36.55;34.55;;;;;;;11.35;100.00;101605.44;6299692;22;20027;-72
2024/02/22 08:16:05;;;;;;;37.63;35.55;;;;;;;12.15;100.00;101602.44;6299928;22;20023;-71
2024/02/22 08:18:33;;;;;;;33.90;32.00;;;;;;;10.20;100.00;101603.34;6299336;22;20033;-72
2024/02/22 08:21:00;;;;;;;37.72;35.72;;;;;;;11.67;100.00;101607.56;6299664;22;20027;-72
2024/02/22 08:23:30;;;;;;;46.38;43.95;;;;;;;12.17;100.00;101596.94;6300076;22;20464;-72
2024/02/22 08:25:57;;;;;;;48.92;46.33;;;;;;;12.55;100.00;101596.50;6299481;22;20464;-72
2024/02/22 08:28:29;;;;;;;46.53;44.03;;;;;;;10.87;100.00;101599.78;6299149;22;20016;-72
2024/02/22 08:30:58;;;;;;;51.25;48.65;;;;;;;11.31;100.00;101601.47;6299800;22;20015;-72
2024/02/22 08:33:26;;;;;;;49.95;47.05;;;;;;;13.00;100.00;101595.06;6300327;22;20364;-71
2024/02/22 08:35:54;;;;;;;50.03;47.47;;;;;;;13.05;100.00;101602.47;6300129;22;20019;-72
2024/02/22 08:38:21;;;;;;;51.20;48.50;;;;;;;13.00;100.00;101594.25;6299558;22;20019;-72
2024/02/22 08:40:48;;;;;;;51.83;49.03;;;;;;;12.70;100.00;101599.03;6299472;22;20033;-71
2024/02/22 08:43:16;;;;;;;52.15;49.45;;;;;;;12.42;100.00;101596.47;6299286;22;20019;-72
2024/02/22 08:45:44;;;;;;;51.45;48.70;;;;;;;13.34;100.00;101595.97;6299656;22;20051;-71
2024/02/22 08:48:11;;;;;;;53.20;50.50;;;;;;;12.10;100.00;101591.56;6299345;22;20023;-71
2024/02/22 08:50:38;;;;;;;43.58;41.17;;;;;;;12.66;100.00;101590.63;6299176;22;20126;-72
2024/02/22 08:53:05;;;;;;;42.97;40.58;;;;;;;12.26;100.00;101592.28;6299581;22;20023;-72
2024/02/22 08:55:32;;;;;;;43.42;41.03;;;;;;;13.58;100.00;101583.09;6299094;22;20023;-71
2024/02/22 08:57:59;;;;;;;46.05;43.60;;;;;;;12.77;100.00;101587.41;6299691;22;20050;-71
2024/02/22 09:00:26;;;;;;;46.53;44.03;;;;;;;12.23;100.00;101585.50;6299511;22;20034;-71
2024/02/22 09:02:54;;;;;;;40.28;38.08;;;;;;;12.93;100.00;101586.22;6299891;22;20058;-71
2024/02/22 09:05:21;;;;;;;43.13;40.83;;;;;;;12.45;100.00;101591.56;6299382;22;20025;-72
2024/02/22 09:07:49;;;;;;;59.45;56.15;;;;;;;13.50;100.00;101576.94;6294013;22;20026;-71
2024/02/22 09:10:16;;;;;;;54.90;52.03;;;;;;;13.64;100.00;101577.75;6299426;22;20027;-71
2024/02/22 09:12:43;;;;;;;56.22;53.13;;;;;;;12.80;100.00;101589.69;6298606;22;20030;-71
2024/02/22 09:15:12;;;;;;;60.58;57.28;;;;;;;14.88;100.00;101579.53;6299068;22;20027;-71
2024/02/22 09:17:39;;;;;;;50.78;48.08;;;;;;;14.34;100.00;101578.09;6298773;22;20027;-72
2024/02/22 09:20:10;;;;;;;45.35;42.95;;;;;;;12.70;100.00;101580.38;6298754;22;20023;-72
2024/02/22 09:22:40;;;;;;;59.05;56.05;;;;;;;13.81;100.00;101580.03;6298311;22;20027;-72
2024/02/22 09:25:08;;;;;;;57.33;54.22;;;;;;;13.45;100.00;101591.91;6299098;22;20023;-72
2024/02/22 09:27:35;;;;;;;54.80;52.00;;;;;;;12.43;100.00;101582.09;6299246;22;20019;-71
2024/02/22 09:30:03;;;;;;;55.00;52.10;;;;;;;12.13;100.00;101582.34;6299550;22;20023;-72
2024/02/22 09:32:30;;;;;;;52.72;49.83;;;;;;;13.79;100.00;101564.19;6298364;22;20023;-71
2024/02/22 09:35:06;;;;;;;59.00;55.90;;;;;;;12.54;100.00;101577.03;6298350;22;20031;-72
2024/02/22 09:37:34;;;;;;;60.15;56.92;;;;;;;12.74;100.00;101576.31;6298735;22;20419;-72
2024/02/22 09:40:01;;;;;;;60.92;57.72;;;;;;;13.41;100.00;101564.00;6298298;22;20504;-72
2024/02/22 09:42:29;;;;;;;54.45;51.55;;;;;;;12.56;100.00;101563.53;6299144;22;20027;-71
2024/02/22 09:44:56;;;;;;;54.90;51.90;;;;;;;13.19;100.00;101558.81;6299330;22;20069;-71
2024/02/22 09:47:23;;;;;;;54.15;51.25;;;;;;;13.42;100.00;101546.97;6298519;22;20084;-71
2024/02/22 09:49:50;;;;;;;55.78;52.83;;;;;;;14.19;100.00;101548.09;6298392;22;20020;-71
2024/02/22 09:52:21;;;;;;;62.17;59.00;;;;;;;14.56;100.00;101543.91;6298846;22;20080;-72
2024/02/22 09:54:49;;;;;;;50.67;48.03;;;;;;;13.43;100.00;101543.25;6298780;22;20027;-71
2024/02/22 09:57:17;;;;;;;57.63;54.63;;;;;;;13.32;100.00;101538.53;6299254;22;20094;-72
2024/02/22 09:59:50;;;;;;;54.97;52.08;;;;;;;15.28;100.00;101522.28;6298565;22;20797;-72
2024/02/22 10:02:18;;;;;;;56.97;53.97;;;;;;;13.07;100.00;101528.41;6298580;22;20030;-71
2024/02/22 10:04:52;;;;;;;61.88;58.67;;;;;;;12.98;100.00;101519.78;6298694;22;20026;-71
2024/02/22 10:07:23;;;;;;;59.90;56.80;;;;;;;12.94;100.00;101523.88;6298748;22;20538;-72
2024/02/22 10:09:52;;;;;;;59.63;56.53;;;;;;;14.37;100.00;101513.53;6293135;22;20097;-72
2024/02/22 10:12:26;;;;;;;60.85;57.28;;;;;;;14.97;100.00;101510.56;6298749;22;20039;-72
2024/02/22 10:14:53;;;;;;;56.78;53.67;;;;;;;14.99;100.00;101515.72;6298400;22;20023;-72
2024/02/22 10:17:21;;;;;;;59.38;56.25;;;;;;;15.41;100.00;101514.16;6297805;22;20023;-72
2024/02/22 10:19:58;;;;;;;62.25;58.92;;;;;;;16.25;87.87;101518.13;6297907;22;20023;-72
2024/02/22 10:22:26;;;;;;;60.10;56.90;;;;;;;14.95;100.00;101506.47;6298788;22;20029;-72
2024/02/22 10:24:55;;;;;;;59.47;56.33;;;;;;;15.05;100.00;101506.81;6298781;22;20103;-72
2024/02/22 10:27:24;;;;;;;60.00;56.60;;;;;;;13.77;100.00;101498.69;6299076;22;20401;-71
2024/02/22 10:29:52;;;;;;;60.90;57.58;;;;;;;15.36;97.15;101479.19;6296330;22;20101;-71
2024/02/22 10:32:20;;;;;;;53.70;50.83;;;;;;;15.82;92.56;101482.50;6298652;22;20361;-72
2024/02/22 10:34:51;;;;;;;54.33;51.33;;;;;;;14.49;95.65;101486.94;6299606;22;20030;-71
2024/02/22 10:37:22;;;;;;;60.03;56.83;;;;;;;15.62;96.47;101478.16;6299131;22;20108;-72
2024/02/22 10:39:50;;;;;;;70.85;67.22;;;;;;;15.96;90.26;101465.25;6298023;22;20032;-72
2024/02/22 10:42:18;;;;;;;60.45;57.15;;;;;;;17.30;67.49;101465.88;6298522;22;20432;-72
2024/02/22 10:44:46;;;;;;;68.82;65.03;;;;;;;14.93;100.00;101465.75;6297840;22;20024;-72
2024/02/22 10:47:13;;;;;;;72.03;68.10;;;;;;;16.18;79.86;101462.94;6296354;22;20424;-72
2024/02/22 10:49:41;;;;;;;67.32;63.53;;;;;;;15.42;90.38;101451.56;6296727;22;20038;-72
2024/02/22 10:52:09;;;;;;;65.75;62.03;;;;;;;14.96;95.85;101457.31;6296917;22;20110;-72
2024/02/22 10:54:36;;;;;;;68.00;64.40;;;;;;;14.60;100.00;101440.84;6297415;22;20019;-72
2024/02/22 10:57:05;;;;;;;68.72;64.93;;;;;;;14.73;100.00;101442.63;6297921;22;20016;-71
2024/02/22 10:59:35;;;;;;;57.97;54.78;;;;;;;14.10;100.00;101443.34;6297318;22;20022;-72
2024/02/22 11:02:03;;;;;;;65.35;61.95;;;;;;;14.31;100.00;101436.91;6297190;22;20031;-71
2024/02/22 11:04:31;;;;;;;69.70;66.20;;;;;;;15.17;100.00;101419.47;6296641;22;20027;-72
2024/02/22 11:07:05;;;;;;;50.05;47.30;;;;;;;15.34;100.00;101420.56;6298117;22;20027;-72
2024/02/22 11:09:38;;;;;;;59.67;56.40;;;;;;;15.42;100.00;101421.31;6292452;22;20023;-71